Time;durP1;ratioP1;P1;durP2;ratioP2;P2;SDS_P1;SDS_P2;PMS_P1;PMS_P2;Temp;Humidity;BMP_temperature;BMP_pressure;BME280_temperature;BME280_humidity;BME280_pressure;Samples;Min_cycle;Max_cycle;Signal;HPM_P1;HPM_P2
2022/06/13 00:00:50;;;;;;;6.30;2.47;;;;;;;23.41;64.95;100451.88;2097042;28;20064;-75
2022/06/13 00:02:13;;;;;;;6.22;2.63;;;;;;;23.42;65.05;100437.47;2102187;28;20067;-75
2022/06/13 00:03:34;;;;;;;5.38;3.13;;;;;;;23.42;65.03;100436.59;2111376;28;20094;-76
2022/06/13 00:04:56;;;;;;;5.32;2.15;;;;;;;23.39;65.13;100445.66;2102409;28;20056;-75
2022/06/13 00:06:19;;;;;;;4.95;1.98;;;;;;;23.39;65.15;100439.41;2093790;28;20047;-75
2022/06/13 00:07:43;;;;;;;6.50;2.70;;;;;;;23.40;65.07;100442.03;2102811;28;20050;-75
2022/06/13 00:09:07;;;;;;;8.40;3.03;;;;;;;23.42;65.04;100440.16;2110437;28;20154;-75
2022/06/13 00:10:28;;;;;;;6.38;2.60;;;;;;;23.41;65.02;100424.94;2091047;28;20091;-75
2022/06/13 00:11:52;;;;;;;2.75;1.60;;;;;;;23.43;65.12;100424.88;2094566;28;20204;-76
2022/06/13 00:13:15;;;;;;;6.93;2.92;;;;;;;23.42;65.14;100434.78;2102984;28;20483;-75
2022/06/13 00:14:37;;;;;;;4.05;2.38;;;;;;;23.47;65.04;100431.91;2096762;28;20071;-75
2022/06/13 00:15:58;;;;;;;6.95;2.60;;;;;;;23.49;64.92;100434.53;2093631;28;20230;-75
2022/06/13 00:17:21;;;;;;;8.48;2.80;;;;;;;23.50;64.95;100420.97;2091157;28;20127;-75
2022/06/13 00:18:47;;;;;;;4.15;2.42;;;;;;;23.50;64.90;100420.97;2094066;28;20136;-76
2022/06/13 00:20:10;;;;;;;6.72;2.47;;;;;;;23.53;64.79;100420.84;2091747;28;20048;-75
2022/06/13 00:21:35;;;;;;;9.35;2.60;;;;;;;23.55;64.44;100427.06;2099397;28;20052;-76
2022/06/13 00:22:56;;;;;;;3.15;2.30;;;;;;;23.62;64.58;100422.28;2096922;28;20076;-75
2022/06/13 00:24:19;;;;;;;6.88;2.40;;;;;;;23.69;64.51;100421.09;2101746;28;20511;-75
2022/06/13 00:25:41;;;;;;;5.28;2.58;;;;;;;23.73;64.27;100412.78;2101111;28;20070;-75
2022/06/13 00:27:06;;;;;;;6.63;2.70;;;;;;;23.76;64.20;100417.19;2094387;28;20155;-75
2022/06/13 00:28:27;;;;;;;6.43;2.60;;;;;;;23.82;63.96;100416.91;2091816;28;20081;-75
2022/06/13 00:29:50;;;;;;;5.00;2.20;;;;;;;23.86;64.01;100406.84;2104007;28;20051;-75
2022/06/13 00:31:12;;;;;;;3.38;1.98;;;;;;;23.90;63.86;100416.53;2106114;28;20131;-75
2022/06/13 00:32:35;;;;;;;6.53;2.50;;;;;;;23.93;63.57;100411.00;2109124;28;20047;-75
2022/06/13 00:33:57;;;;;;;4.60;2.60;;;;;;;23.94;63.43;100421.75;2103741;28;20076;-75
2022/06/13 00:35:19;;;;;;;6.88;2.88;;;;;;;23.92;63.62;100422.75;2101230;28;20144;-75
2022/06/13 00:36:42;;;;;;;4.63;2.50;;;;;;;23.91;63.59;100419.16;2110946;28;20039;-75
2022/06/13 00:38:05;;;;;;;6.70;2.70;;;;;;;23.92;63.62;100418.22;2105172;28;20143;-75
2022/06/13 00:39:26;;;;;;;4.53;2.30;;;;;;;23.93;63.28;100419.09;2102620;28;20376;-76
2022/06/13 00:40:48;;;;;;;5.63;2.60;;;;;;;23.95;63.09;100414.53;2110956;28;20094;-75
2022/06/13 00:42:18;;;;;;;5.45;2.45;;;;;;;23.99;63.10;100424.22;2105152;28;20067;-76
2022/06/13 00:43:43;;;;;;;7.85;3.00;;;;;;;24.00;63.05;100413.38;2105877;28;20056;-76
2022/06/13 00:45:14;;;;;;;4.78;2.35;;;;;;;24.01;62.63;100416.94;2096666;28;20187;-75
2022/06/13 00:46:36;;;;;;;6.80;3.10;;;;;;;24.00;62.56;100418.75;2103173;28;20052;-76
2022/06/13 00:47:59;;;;;;;5.28;2.80;;;;;;;23.96;62.67;100410.88;2096711;28;20102;-75
2022/06/13 00:49:26;;;;;;;8.10;2.85;;;;;;;23.94;62.47;100407.38;2108183;28;20411;-77
2022/06/13 00:50:53;;;;;;;6.63;2.83;;;;;;;23.89;62.49;100406.72;2101957;28;20559;-76
2022/06/13 00:52:22;;;;;;;6.57;3.03;;;;;;;23.82;62.42;100407.00;2111236;28;20475;-75
2022/06/13 00:53:46;;;;;;;6.85;3.20;;;;;;;23.73;62.46;100403.81;2098404;28;20086;-76
2022/06/13 00:55:11;;;;;;;6.03;2.83;;;;;;;23.65;62.18;100396.06;2110759;28;20420;-75
2022/06/13 00:56:37;;;;;;;5.90;2.85;;;;;;;23.58;62.04;100397.28;2098987;28;20542;-76
2022/06/13 00:58:03;;;;;;;8.10;3.15;;;;;;;23.55;61.89;100400.13;2110753;28;20044;-76
2022/06/13 00:59:30;;;;;;;8.60;4.13;;;;;;;23.52;61.76;100399.34;2098909;28;20085;-75
2022/06/13 01:00:56;;;;;;;6.38;3.03;;;;;;;23.47;61.76;100399.56;2109688;28;20047;-75
2022/06/13 01:02:19;;;;;;;10.65;4.57;;;;;;;23.46;61.43;100400.47;2111527;28;20040;-76
2022/06/13 01:03:43;;;;;;;7.55;3.05;;;;;;;23.44;61.39;100400.53;2102739;28;20048;-75
2022/06/13 01:05:06;;;;;;;7.85;3.72;;;;;;;23.43;61.34;100408.72;2102047;28;20048;-75
2022/06/13 01:06:31;;;;;;;7.43;3.50;;;;;;;23.41;61.33;100407.88;2102380;28;20040;-75
2022/06/13 01:07:54;;;;;;;6.93;3.00;;;;;;;23.40;61.37;100403.44;2102779;28;20083;-76
2022/06/13 01:09:18;;;;;;;7.22;3.03;;;;;;;23.39;61.22;100401.69;2102514;28;20052;-76
2022/06/13 01:12:26;;;;;;;8.20;3.67;;;;;;;23.41;61.15;100402.50;2104110;28;20055;-76
2022/06/13 01:14:09;;;;;;;9.90;3.38;;;;;;;23.43;61.10;100400.63;2096624;28;20127;-76
2022/06/13 01:15:58;;;;;;;6.18;3.00;;;;;;;23.47;60.97;100398.66;2087848;28;20136;-75
2022/06/13 01:17:31;;;;;;;5.07;3.17;;;;;;;23.49;60.99;100400.38;2104672;28;20080;-75
2022/06/13 01:19:28;;;;;;;5.65;3.28;;;;;;;23.50;60.64;100387.78;2089587;28;20049;-76
2022/06/13 01:21:09;;;;;;;5.00;2.88;;;;;;;23.55;60.47;100385.75;2063144;28;20077;-75
2022/06/13 01:23:04;;;;;;;7.97;3.42;;;;;;;23.60;60.47;100391.81;2096415;28;20421;-75
2022/06/13 01:25:02;;;;;;;9.07;3.20;;;;;;;23.65;60.36;100392.50;2103302;28;20040;-76
2022/06/13 01:26:59;;;;;;;7.00;3.53;;;;;;;23.62;60.34;100381.84;2089882;28;20051;-76
2022/06/13 01:29:07;;;;;;;7.00;3.42;;;;;;;23.62;60.34;100388.13;2111298;28;20054;-74
2022/06/13 01:31:07;;;;;;;6.35;3.60;;;;;;;23.65;60.08;100385.28;2104510;28;20055;-75
2022/06/13 01:32:54;;;;;;;7.32;3.42;;;;;;;23.69;60.01;100376.13;2104639;28;20395;-75
2022/06/13 01:34:29;;;;;;;5.80;3.05;;;;;;;23.70;59.67;100380.56;2094653;28;20163;-75
2022/06/13 01:36:02;;;;;;;5.15;2.90;;;;;;;23.67;59.82;100378.00;2101618;28;20040;-76
2022/06/13 01:37:45;;;;;;;6.72;3.22;;;;;;;23.68;59.71;100384.28;2095407;28;20147;-75
2022/06/13 01:39:19;;;;;;;7.00;3.00;;;;;;;23.69;59.83;100381.53;2102260;28;20668;-75
2022/06/13 01:40:58;;;;;;;6.13;2.78;;;;;;;23.69;59.78;100377.94;2102318;28;20503;-75
2022/06/13 01:42:31;;;;;;;5.45;3.13;;;;;;;23.69;59.77;100377.94;2096151;28;20045;-75
2022/06/13 01:44:02;;;;;;;9.40;3.95;;;;;;;23.73;59.85;100384.94;2094623;28;20149;-75
2022/06/13 01:45:34;;;;;;;6.55;2.63;;;;;;;23.76;59.66;100372.19;2094724;28;20067;-75
2022/06/13 01:47:04;;;;;;;7.72;3.17;;;;;;;23.78;59.68;100370.31;2102678;28;20047;-75
2022/06/13 01:48:35;;;;;;;8.57;3.42;;;;;;;23.80;59.77;100370.25;2102390;28;20040;-75
2022/06/13 01:50:07;;;;;;;6.85;2.60;;;;;;;23.81;59.72;100367.50;2102137;28;20044;-75
2022/06/13 01:51:38;;;;;;;5.68;3.13;;;;;;;23.82;59.89;100369.25;2111932;28;20066;-75
2022/06/13 01:53:08;;;;;;;7.28;3.10;;;;;;;23.84;59.89;100371.84;2104463;28;20143;-74
2022/06/13 01:54:39;;;;;;;6.22;3.00;;;;;;;23.86;59.91;100374.47;2102985;28;20036;-75
2022/06/13 01:56:09;;;;;;;5.90;3.00;;;;;;;23.88;60.04;100378.88;2102076;28;20076;-75
2022/06/13 01:57:37;;;;;;;8.48;3.38;;;;;;;23.91;59.76;100367.94;2101743;28;20077;-75
2022/06/13 01:59:07;;;;;;;5.85;2.92;;;;;;;23.91;60.03;100376.03;2103069;28;20056;-75
2022/06/13 02:00:31;;;;;;;7.22;2.70;;;;;;;23.91;60.17;100376.03;2111314;28;20035;-75
2022/06/13 02:01:59;;;;;;;5.70;3.13;;;;;;;23.91;60.34;100375.13;2103525;28;20114;-75
2022/06/13 02:03:30;;;;;;;5.00;2.83;;;;;;;23.90;60.33;100360.78;2093295;28;20036;-75
2022/06/13 02:05:00;;;;;;;6.20;3.00;;;;;;;23.87;60.50;100378.94;2101728;28;20059;-74
2022/06/13 02:06:29;;;;;;;7.05;2.33;;;;;;;23.84;60.66;100370.03;2096292;28;20044;-74
2022/06/13 02:07:57;;;;;;;5.90;2.83;;;;;;;23.83;60.58;100375.47;2083387;28;20047;-75
2022/06/13 02:09:23;;;;;;;6.25;2.70;;;;;;;23.83;60.47;100373.66;2097619;28;20048;-74
2022/06/13 02:10:50;;;;;;;6.85;2.92;;;;;;;23.86;60.70;100375.38;2096402;28;20465;-75
2022/06/13 02:12:14;;;;;;;7.32;2.97;;;;;;;23.91;60.61;100372.44;2088120;28;20909;-75
2022/06/13 02:13:40;;;;;;;6.10;2.97;;;;;;;23.94;60.50;100375.03;2091675;28;20044;-75
2022/06/13 02:15:07;;;;;;;10.18;2.97;;;;;;;23.94;60.64;100367.81;2102320;28;20119;-75
2022/06/13 02:16:35;;;;;;;7.45;3.92;;;;;;;23.95;60.69;100366.00;2104703;28;20082;-75
2022/06/13 02:18:02;;;;;;;6.82;3.42;;;;;;;23.91;60.79;100353.56;2096307;28;20040;-75
2022/06/13 02:19:33;;;;;;;5.68;3.13;;;;;;;23.91;60.83;100367.06;2099290;28;20058;-75
2022/06/13 02:21:00;;;;;;;5.50;3.10;;;;;;;23.91;60.77;100369.75;2102803;28;20407;-75
2022/06/13 02:22:29;;;;;;;6.53;2.92;;;;;;;23.93;60.87;100366.06;2109690;28;20061;-74
2022/06/13 02:23:56;;;;;;;6.63;2.80;;;;;;;23.94;60.96;100362.41;2101368;28;20426;-76
2022/06/13 02:25:24;;;;;;;6.32;3.22;;;;;;;23.95;61.04;100355.19;2102174;28;20044;-75
2022/06/13 02:26:49;;;;;;;8.20;3.33;;;;;;;23.97;61.13;100366.78;2100835;28;20105;-75
2022/06/13 02:28:17;;;;;;;7.68;3.47;;;;;;;23.97;61.12;100373.03;2105193;28;20067;-75
2022/06/13 02:29:42;;;;;;;5.25;2.70;;;;;;;23.96;61.24;100371.28;2097596;28;20440;-75
2022/06/13 02:31:13;;;;;;;7.15;3.35;;;;;;;23.95;61.28;100372.25;2103844;28;20048;-74
2022/06/13 02:32:41;;;;;;;7.90;3.03;;;;;;;23.95;61.44;100376.78;2092478;28;20079;-75
2022/06/13 02:34:06;;;;;;;4.88;2.78;;;;;;;23.96;61.29;100362.34;2108586;28;20047;-75
2022/06/13 02:35:35;;;;;;;8.68;3.50;;;;;;;23.97;61.39;100366.78;2104565;28;20044;-75
2022/06/13 02:37:03;;;;;;;9.95;3.30;;;;;;;23.96;61.26;100378.53;2095576;28;20072;-75
2022/06/13 02:38:30;;;;;;;4.07;2.30;;;;;;;23.96;61.24;100376.69;2110807;28;20032;-75
2022/06/13 02:39:57;;;;;;;8.27;3.80;;;;;;;23.95;61.03;100372.25;2103855;28;20264;-75
2022/06/13 02:41:22;;;;;;;7.35;3.10;;;;;;;23.96;60.89;100381.22;2099583;28;20087;-75
2022/06/13 02:42:49;;;;;;;8.15;2.78;;;;;;;23.97;60.60;100377.56;2109715;28;20514;-75
2022/06/13 02:44:17;;;;;;;6.35;3.10;;;;;;;23.97;60.58;100375.75;2084120;28;20069;-75
2022/06/13 02:45:44;;;;;;;7.75;2.60;;;;;;;23.98;60.49;100373.91;2104461;28;20059;-75
2022/06/13 02:47:12;;;;;;;7.15;3.13;;;;;;;23.95;60.32;100372.25;2104237;28;20031;-75
2022/06/13 02:48:40;;;;;;;5.72;2.60;;;;;;;23.97;60.28;100377.56;2101280;28;20515;-75
2022/06/13 02:50:07;;;;;;;6.57;3.10;;;;;;;23.96;59.96;100375.84;2104006;28;20076;-75
2022/06/13 02:51:39;;;;;;;4.68;2.20;;;;;;;23.96;60.04;100383.94;2105782;28;20120;-74
2022/06/13 02:53:09;;;;;;;6.28;2.70;;;;;;;23.95;59.92;100384.88;2097848;28;20048;-76
2022/06/13 02:54:37;;;;;;;7.25;2.47;;;;;;;23.96;59.79;100378.53;2104409;28;20131;-75
2022/06/13 02:56:12;;;;;;;7.75;3.15;;;;;;;23.96;59.96;100378.53;2088699;28;20079;-74
2022/06/13 02:57:55;;;;;;;13.15;4.22;;;;;;;23.96;59.89;100375.84;2084888;28;20280;-75
2022/06/13 02:59:24;;;;;;;5.53;2.80;;;;;;;23.95;60.03;100382.16;2106176;28;20075;-75
2022/06/13 03:00:57;;;;;;;6.90;2.90;;;;;;;23.96;60.05;100375.84;2088309;28;20051;-75
2022/06/13 03:02:21;;;;;;;;;;;;;;;23.94;60.00;100378.59;2095322;28;20767;-75
2022/06/13 03:03:49;;;;;;;6.43;2.80;;;;;;;23.94;60.27;100381.28;2100550;28;20070;-75
2022/06/13 03:05:27;;;;;;;6.55;3.25;;;;;;;23.96;60.12;100373.13;2111984;28;20051;-75
2022/06/13 03:07:03;;;;;;;7.47;3.25;;;;;;;23.98;59.99;100379.31;2105729;28;20048;-75
2022/06/13 03:08:40;;;;;;;5.53;3.08;;;;;;;23.99;59.95;100376.56;2109796;28;21522;-75
2022/06/13 03:10:09;;;;;;;6.85;3.25;;;;;;;23.98;59.76;100382.00;2113860;28;20470;-75
2022/06/13 03:11:41;;;;;;;5.55;2.85;;;;;;;23.98;59.91;100376.63;2098685;28;20097;-75
2022/06/13 03:13:09;;;;;;;6.72;3.67;;;;;;;23.99;59.71;100381.94;2106557;28;20364;-75
2022/06/13 03:14:41;;;;;;;8.10;2.97;;;;;;;24.01;59.75;100382.75;2105162;28;20193;-75
2022/06/13 03:16:12;;;;;;;6.47;2.90;;;;;;;24.00;59.64;100370.22;2109674;28;20043;-75
2022/06/13 03:17:41;;;;;;;6.60;3.78;;;;;;;23.98;59.71;100377.50;2103886;28;20072;-74
2022/06/13 03:19:09;;;;;;;7.20;2.95;;;;;;;23.99;59.64;100381.06;2096968;28;20053;-75
2022/06/13 03:20:36;;;;;;;7.32;3.45;;;;;;;24.01;59.80;100379.19;2087237;28;20068;-75
2022/06/13 03:22:06;;;;;;;6.53;2.42;;;;;;;24.00;59.88;100388.22;2093665;28;20053;-76
2022/06/13 03:23:36;;;;;;;4.20;2.55;;;;;;;23.97;60.01;100391.91;2103902;28;20126;-75
2022/06/13 03:25:08;;;;;;;14.05;3.35;;;;;;;24.01;59.93;100373.78;2112757;28;20138;-75
2022/06/13 03:26:39;;;;;;;8.07;2.85;;;;;;;24.02;60.01;100386.34;2098740;28;20148;-76
2022/06/13 03:28:09;;;;;;;9.05;3.10;;;;;;;24.04;60.03;100392.50;2112687;28;20035;-76
2022/06/13 03:29:34;;;;;;;5.03;2.55;;;;;;;24.03;59.79;100371.88;2105723;28;20452;-77
2022/06/13 03:30:59;;;;;;;6.18;2.63;;;;;;;24.02;59.69;100370.16;2101473;28;20056;-75
2022/06/13 03:32:25;;;;;;;5.40;3.47;;;;;;;24.02;59.90;100383.63;2094850;28;20041;-76
2022/06/13 03:33:52;;;;;;;7.00;3.10;;;;;;;24.00;59.64;100378.31;2107756;28;20066;-75
2022/06/13 03:35:17;;;;;;;6.10;3.00;;;;;;;24.00;59.74;100385.53;2097231;28;20033;-76
2022/06/13 03:36:44;;;;;;;7.70;2.53;;;;;;;24.03;59.67;100382.66;2103663;28;20047;-76
2022/06/13 03:38:13;;;;;;;7.85;2.97;;;;;;;24.04;59.87;100387.13;2100548;28;20551;-76
2022/06/13 03:39:41;;;;;;;7.72;3.42;;;;;;;24.06;59.67;100390.63;2111633;28;20380;-76
2022/06/13 03:41:06;;;;;;;6.60;3.35;;;;;;;24.08;59.65;100383.34;2112306;28;20047;-75
2022/06/13 03:42:33;;;;;;;5.88;3.13;;;;;;;24.07;59.81;100392.38;2094370;28;20048;-74
2022/06/13 03:44:00;;;;;;;5.80;3.20;;;;;;;24.07;60.08;100379.78;2101181;28;20051;-76
2022/06/13 03:45:29;;;;;;;5.85;2.78;;;;;;;24.07;60.32;100395.09;2102816;28;20040;-76
2022/06/13 03:46:56;;;;;;;6.93;2.90;;;;;;;24.05;60.50;100392.44;2098934;28;20039;-76
2022/06/13 03:48:23;;;;;;;9.63;2.90;;;;;;;24.08;60.52;100395.03;2095234;28;20612;-75
2022/06/13 03:49:51;;;;;;;5.57;2.88;;;;;;;24.09;60.39;100385.97;2093267;28;20044;-76
2022/06/13 03:51:17;;;;;;;5.10;2.30;;;;;;;24.11;60.34;100402.97;2109540;28;20040;-76
2022/06/13 03:52:46;;;;;;;9.90;3.13;;;;;;;24.16;60.22;100397.34;2108073;28;20044;-74
2022/06/13 03:54:14;;;;;;;6.82;2.95;;;;;;;24.21;60.31;100398.06;2108983;28;20064;-75
2022/06/13 03:55:42;;;;;;;5.95;2.95;;;;;;;24.25;60.22;100401.47;2103585;28;20063;-75
2022/06/13 03:57:11;;;;;;;8.15;2.92;;;;;;;24.27;60.13;100400.47;2103690;28;20101;-75
2022/06/13 03:58:36;;;;;;;5.22;2.53;;;;;;;24.32;60.14;100394.84;2101114;28;20159;-75
2022/06/13 04:00:05;;;;;;;5.32;3.00;;;;;;;24.36;60.07;100400.03;2111728;28;20051;-75
2022/06/13 04:01:32;;;;;;;8.93;2.95;;;;;;;24.34;60.01;100401.94;2112565;28;20059;-75
2022/06/13 04:02:54;;;;;;;6.60;2.90;;;;;;;24.36;59.96;100393.75;2098558;28;20063;-75
2022/06/13 04:04:21;;;;;;;4.85;2.55;;;;;;;24.38;59.91;100395.44;2099022;28;20109;-75
2022/06/13 04:05:56;;;;;;;8.38;2.72;;;;;;;24.39;59.97;100404.41;2103586;28;20428;-75
2022/06/13 04:07:20;;;;;;;6.93;3.00;;;;;;;24.38;59.72;100394.56;2103288;28;20140;-75
2022/06/13 04:08:42;;;;;;;6.20;2.72;;;;;;;24.39;59.92;100399.03;2094560;28;20147;-75
2022/06/13 04:10:10;;;;;;;5.82;2.65;;;;;;;24.41;60.01;100389.91;2099984;28;20044;-75
2022/06/13 04:11:51;;;;;;;5.95;2.90;;;;;;;24.45;59.62;100396.91;2102060;28;20066;-75
2022/06/13 04:13:27;;;;;;;5.18;2.20;;;;;;;24.50;59.62;100396.69;2093955;28;20044;-75
2022/06/13 04:15:05;;;;;;;4.43;2.58;;;;;;;24.54;59.72;100393.78;2095899;28;20091;-75
2022/06/13 04:16:46;;;;;;;7.30;3.03;;;;;;;24.54;59.49;100396.47;2104942;28;20510;-75
2022/06/13 04:18:19;;;;;;;6.05;2.55;;;;;;;24.52;59.53;100392.09;2098765;28;20544;-74
2022/06/13 04:19:55;;;;;;;6.78;2.70;;;;;;;24.53;59.51;100385.75;2103408;28;20048;-74
2022/06/13 04:21:27;;;;;;;8.45;2.58;;;;;;;24.54;59.55;100391.09;2104678;28;20551;-75
2022/06/13 04:22:55;;;;;;;8.68;4.18;;;;;;;24.57;59.35;100392.75;2096961;28;20053;-75
2022/06/13 04:24:28;;;;;;;5.10;2.45;;;;;;;24.60;59.08;100384.50;2101851;28;20054;-75
2022/06/13 04:26:02;;;;;;;6.25;2.80;;;;;;;24.63;59.01;100387.91;2096321;28;20041;-75
2022/06/13 04:27:29;;;;;;;5.25;2.25;;;;;;;24.66;59.24;100381.50;2099643;28;20118;-75
2022/06/13 04:28:56;;;;;;;6.57;2.97;;;;;;;24.70;59.16;100385.78;2109486;28;21693;-75
2022/06/13 04:30:23;;;;;;;5.63;2.80;;;;;;;24.72;59.26;100385.72;2104975;28;20051;-75
2022/06/13 04:31:44;;;;;;;7.13;2.75;;;;;;;24.74;58.96;100392.81;2105114;28;20086;-75
2022/06/13 04:33:14;;;;;;;7.43;2.85;;;;;;;24.77;59.05;100381.84;2101487;28;20055;-75
2022/06/13 04:34:43;;;;;;;8.50;2.92;;;;;;;24.81;59.34;100383.44;2102322;28;20044;-75
2022/06/13 04:36:07;;;;;;;5.95;2.67;;;;;;;24.85;59.11;100389.59;2103152;28;20148;-75
2022/06/13 04:37:30;;;;;;;6.32;2.88;;;;;;;24.88;59.24;100390.28;2101616;28;20072;-75
2022/06/13 04:38:56;;;;;;;7.45;2.92;;;;;;;24.92;59.20;100377.56;2093940;28;20135;-75
2022/06/13 04:40:23;;;;;;;5.60;3.33;;;;;;;24.92;59.13;100391.06;2100619;28;20075;-75
2022/06/13 04:41:49;;;;;;;6.50;2.63;;;;;;;24.91;59.13;100381.22;2103131;28;20052;-75
2022/06/13 04:43:14;;;;;;;8.00;2.65;;;;;;;24.94;59.04;100383.78;2101060;28;20069;-75
2022/06/13 04:44:40;;;;;;;6.20;2.38;;;;;;;24.97;58.84;100376.38;2102713;28;20167;-75
2022/06/13 04:46:08;;;;;;;5.22;2.53;;;;;;;25.05;58.34;100375.13;2111075;28;20471;-75
2022/06/13 04:47:31;;;;;;;7.60;2.63;;;;;;;25.09;58.15;100391.09;2096339;28;20144;-75
2022/06/13 04:48:57;;;;;;;6.47;2.58;;;;;;;25.13;58.02;100375.63;2097016;28;20040;-75
2022/06/13 04:50:28;;;;;;;7.50;2.47;;;;;;;25.19;57.80;100386.97;2094283;28;20143;-75
2022/06/13 04:51:52;;;;;;;5.57;2.50;;;;;;;25.35;57.50;100379.81;2094925;28;20059;-75
2022/06/13 04:53:26;;;;;;;5.22;2.38;;;;;;;25.54;57.16;100387.84;2102048;28;20145;-75
2022/06/13 04:54:52;;;;;;;8.98;3.15;;;;;;;25.70;56.91;100386.16;2103050;28;20044;-75
2022/06/13 04:56:15;;;;;;;5.07;3.00;;;;;;;25.77;56.79;100384.88;2102988;28;20044;-75
2022/06/13 04:57:39;;;;;;;5.20;2.60;;;;;;;25.83;56.72;100397.19;2102008;28;20078;-75
2022/06/13 04:59:02;;;;;;;4.15;2.22;;;;;;;25.87;56.81;100393.34;2092915;28;20036;-75
2022/06/13 05:00:25;;;;;;;3.65;2.10;;;;;;;25.80;56.78;100389.22;2099909;28;20044;-75
2022/06/13 05:01:48;;;;;;;5.75;2.50;;;;;;;25.76;56.58;100387.66;2109634;28;20066;-75
2022/06/13 05:03:23;;;;;;;6.00;2.33;;;;;;;25.79;56.68;100392.91;2102087;28;20067;-75
2022/06/13 05:04:46;;;;;;;6.05;2.13;;;;;;;25.79;56.50;100396.50;2095313;28;20451;-75
2022/06/13 05:06:21;;;;;;;2.83;1.77;;;;;;;25.81;56.16;100382.84;2099592;28;20162;-76
2022/06/13 05:07:43;;;;;;;7.13;2.22;;;;;;;25.79;55.93;100384.78;2103500;28;20415;-75
2022/06/13 05:09:13;;;;;;;5.53;3.28;;;;;;;25.78;55.93;100404.69;2102076;28;20093;-75
2022/06/13 05:10:39;;;;;;;4.88;2.20;;;;;;;25.79;55.69;100401.03;2102317;28;20039;-76
2022/06/13 05:12:10;;;;;;;4.95;2.30;;;;;;;25.77;55.76;100394.81;2102166;28;20040;-75
2022/06/13 05:13:34;;;;;;;6.00;2.25;;;;;;;25.88;55.78;100400.50;2102463;28;20203;-76
2022/06/13 05:15:01;;;;;;;11.35;3.80;;;;;;;25.98;55.38;100401.78;2094053;28;20083;-75
2022/06/13 05:16:32;;;;;;;5.43;2.58;;;;;;;26.17;55.08;100416.06;2099435;28;20051;-76
2022/06/13 05:18:20;;;;;;;4.30;2.28;;;;;;;26.57;54.32;100401.25;2101858;28;20104;-75
2022/06/13 05:19:54;;;;;;;4.82;2.42;;;;;;;27.02;53.16;100401.44;2104631;28;20470;-75
2022/06/13 05:21:41;;;;;;;6.55;3.63;;;;;;;26.92;52.85;100412.78;2104342;28;20123;-75
2022/06/13 05:23:20;;;;;;;5.65;3.15;;;;;;;27.16;52.40;100405.09;2103106;28;20500;-75
2022/06/13 05:25:09;;;;;;;4.82;2.40;;;;;;;27.09;52.72;100411.81;2103495;28;20075;-75
2022/06/13 05:26:31;;;;;;;6.70;2.55;;;;;;;27.03;53.06;100409.47;2100579;28;20617;-76
2022/06/13 05:27:54;;;;;;;6.20;2.03;;;;;;;26.98;53.38;100408.00;2098796;28;20051;-75
2022/06/13 05:29:17;;;;;;;5.32;2.45;;;;;;;27.02;53.31;100412.28;2102098;28;20511;-75
2022/06/13 05:30:42;;;;;;;4.70;2.10;;;;;;;27.03;53.51;100398.63;2101101;28;20090;-75
2022/06/13 05:32:07;;;;;;;7.60;2.65;;;;;;;26.99;53.32;100402.47;2100474;28;20047;-76
2022/06/13 05:33:34;;;;;;;3.85;1.92;;;;;;;27.07;53.54;100410.16;2102502;28;20075;-76
2022/06/13 05:34:57;;;;;;;6.28;2.08;;;;;;;27.36;52.60;100388.50;2094151;28;20044;-76
2022/06/13 05:36:22;;;;;;;5.50;2.30;;;;;;;27.36;52.39;100406.63;2100423;28;20131;-76
2022/06/13 05:37:45;;;;;;;4.15;2.17;;;;;;;27.55;52.37;100406.41;2094881;28;20573;-76
2022/06/13 05:39:08;;;;;;;3.70;1.85;;;;;;;27.57;52.05;100420.78;2096933;28;20064;-76
2022/06/13 05:40:31;;;;;;;4.78;1.95;;;;;;;27.40;52.20;100419.03;2101861;28;20079;-76
2022/06/13 05:41:53;;;;;;;6.47;2.08;;;;;;;27.25;52.55;100419.91;2100196;28;20044;-76
2022/06/13 05:43:16;;;;;;;5.13;2.55;;;;;;;27.14;52.84;100425.09;2090085;28;20064;-76
2022/06/13 05:44:40;;;;;;;5.45;2.60;;;;;;;27.25;52.78;100419.91;2098340;28;20048;-75
2022/06/13 05:46:04;;;;;;;6.15;2.28;;;;;;;27.71;51.91;100426.22;2103274;28;21449;-75
2022/06/13 05:47:26;;;;;;;3.85;2.00;;;;;;;28.11;50.90;100416.50;2102256;28;20051;-75
2022/06/13 05:48:51;;;;;;;5.35;2.50;;;;;;;28.04;50.65;100424.13;2095295;28;20044;-76
2022/06/13 05:50:15;;;;;;;9.23;2.78;;;;;;;27.69;51.38;100412.75;2100208;28;20036;-75
2022/06/13 05:51:38;;;;;;;4.43;1.80;;;;;;;27.47;51.89;100425.81;2101844;28;20067;-75
2022/06/13 05:53:01;;;;;;;4.80;2.30;;;;;;;27.93;50.91;100433.94;2099803;28;20040;-76
2022/06/13 05:54:23;;;;;;;7.35;2.40;;;;;;;28.26;50.01;100425.56;2102081;28;20048;-75
2022/06/13 05:55:45;;;;;;;5.25;2.28;;;;;;;28.22;49.84;100433.03;2100927;28;20139;-76
2022/06/13 05:57:07;;;;;;;6.28;2.55;;;;;;;27.95;50.27;100423.84;2103156;28;20215;-76
2022/06/13 05:58:30;;;;;;;5.82;2.38;;;;;;;27.67;50.84;100430.09;2110012;28;20127;-76
2022/06/13 05:59:54;;;;;;;3.63;2.30;;;;;;;27.45;51.32;100430.47;2109983;28;20086;-76
2022/06/13 06:01:16;;;;;;;3.50;2.25;;;;;;;27.29;51.83;100427.81;2096506;28;20132;-76
2022/06/13 06:02:38;;;;;;;4.85;2.35;;;;;;;27.26;51.88;100433.38;2111042;28;20065;-75
2022/06/13 06:04:01;;;;;;;4.97;2.50;;;;;;;27.18;51.84;100438.38;2105486;28;20146;-74
2022/06/13 06:05:23;;;;;;;7.75;2.85;;;;;;;27.15;51.90;100435.88;2102915;28;20048;-74
2022/06/13 06:06:46;;;;;;;3.78;2.30;;;;;;;27.12;52.19;100427.00;2105943;28;20063;-74
2022/06/13 06:08:17;;;;;;;6.70;2.72;;;;;;;27.04;52.28;100432.03;2103603;28;20110;-74
2022/06/13 06:09:39;;;;;;;6.78;2.38;;;;;;;26.93;52.62;100430.78;2103821;28;20047;-74
2022/06/13 06:11:02;;;;;;;7.22;2.40;;;;;;;26.92;52.72;100430.88;2109797;28;20060;-74
2022/06/13 06:12:24;;;;;;;6.47;2.25;;;;;;;26.87;52.68;100423.00;2103912;28;20040;-75
2022/06/13 06:13:47;;;;;;;5.72;2.30;;;;;;;26.87;52.90;100439.25;2105546;28;20100;-74
2022/06/13 06:15:12;;;;;;;4.40;2.95;;;;;;;26.97;52.91;100412.53;2102517;28;20130;-74
2022/06/13 06:16:35;;;;;;;5.75;2.28;;;;;;;27.38;52.57;100424.53;2087165;28;20084;-75
2022/06/13 06:17:57;;;;;;;4.97;2.13;;;;;;;27.70;51.47;100425.34;2101059;28;20071;-75
2022/06/13 06:19:19;;;;;;;3.92;2.13;;;;;;;27.68;51.59;100437.28;2089731;28;20511;-76
2022/06/13 06:20:42;;;;;;;4.63;2.13;;;;;;;27.46;51.70;100417.78;2095145;28;20040;-77
2022/06/13 06:22:05;;;;;;;5.38;2.50;;;;;;;27.17;52.47;100420.41;2103624;28;20139;-77
2022/06/13 06:23:27;;;;;;;7.90;2.38;;;;;;;27.21;52.80;100434.63;2102705;28;20040;-76
2022/06/13 06:24:50;;;;;;;4.95;1.95;;;;;;;27.28;52.65;100433.31;2093783;28;20052;-76
2022/06/13 06:26:16;;;;;;;5.63;2.15;;;;;;;27.40;52.74;100429.88;2100675;28;20741;-77
2022/06/13 06:27:40;;;;;;;6.50;2.13;;;;;;;27.83;51.91;100430.88;2095533;28;20057;-77
2022/06/13 06:29:02;;;;;;;4.75;2.47;;;;;;;28.66;50.37;100434.75;2103414;28;20040;-76
2022/06/13 06:30:27;;;;;;;5.18;2.28;;;;;;;29.36;48.70;100432.88;2105997;28;20403;-76
2022/06/13 06:31:49;;;;;;;5.20;2.10;;;;;;;29.37;48.30;100432.78;2112095;28;20040;-77
2022/06/13 06:33:12;;;;;;;4.20;1.80;;;;;;;29.31;48.38;100425.00;2111742;28;20039;-77
2022/06/13 06:34:36;;;;;;;5.57;2.03;;;;;;;29.74;47.47;100433.84;2111925;28;20435;-77
2022/06/13 06:36:00;;;;;;;6.30;2.03;;;;;;;30.35;46.51;100440.47;2099385;28;20045;-76
2022/06/13 06:37:23;;;;;;;6.60;2.22;;;;;;;30.53;46.25;100425.53;2094382;28;20141;-76
2022/06/13 06:38:46;;;;;;;5.65;2.42;;;;;;;30.29;46.25;100439.03;2096565;28;20113;-77
2022/06/13 06:40:11;;;;;;;6.60;2.20;;;;;;;29.79;47.21;100433.53;2103088;28;20432;-76
2022/06/13 06:41:34;;;;;;;4.53;1.80;;;;;;;29.31;48.12;100434.03;2094903;28;20721;-77
2022/06/13 06:42:57;;;;;;;6.22;2.10;;;;;;;28.92;48.65;100436.69;2094925;28;20049;-78
2022/06/13 06:44:19;;;;;;;4.03;2.08;;;;;;;28.59;49.10;100438.84;2106375;28;20043;-77
2022/06/13 06:45:43;;;;;;;7.43;2.22;;;;;;;28.36;49.60;100446.59;2100151;28;20143;-78
2022/06/13 06:47:06;;;;;;;6.10;2.22;;;;;;;28.29;49.82;100445.22;2109279;28;20050;-80
2022/06/13 06:48:29;;;;;;;6.05;2.20;;;;;;;28.29;49.79;100445.22;2101210;28;20060;-79
2022/06/13 06:49:52;;;;;;;5.20;2.13;;;;;;;28.20;49.68;100437.69;2102935;28;20048;-78